createdAt,value
2022-10-22T00:01:49.089Z,9.90
2022-10-22T00:04:16.045Z,9.96
2022-10-22T00:06:45.085Z,9.91
2022-10-22T00:09:13.936Z,9.92
2022-10-22T00:11:42.695Z,9.95
2022-10-22T00:14:09.883Z,10.19
2022-10-22T00:16:36.748Z,9.95
2022-10-22T00:19:04.026Z,10.04
2022-10-22T00:21:30.949Z,9.91
2022-10-22T00:23:57.823Z,9.72
2022-10-22T00:26:24.694Z,10.02
2022-10-22T00:28:51.556Z,10.10
2022-10-22T00:31:20.177Z,9.85
2022-10-22T00:33:48.214Z,10.09
2022-10-22T00:36:16.007Z,10.29
2022-10-22T00:38:43.264Z,10.17
2022-10-22T00:41:10.384Z,10.30
2022-10-22T00:43:55.019Z,10.19
2022-10-22T00:46:21.998Z,9.80
2022-10-22T00:48:49.578Z,9.85
2022-10-22T00:51:16.619Z,10.18
2022-10-22T00:53:49.207Z,10.14
2022-10-22T00:56:17.197Z,10.16
2022-10-22T00:58:52.768Z,10.06
2022-10-22T01:01:25.220Z,10.15
2022-10-22T01:03:52.857Z,10.48
2022-10-22T01:06:32.361Z,10.39
2022-10-22T01:09:26.720Z,10.60
2022-10-22T01:12:24.650Z,10.44
2022-10-22T01:15:26.915Z,10.59
2022-10-22T01:18:06.626Z,10.63
2022-10-22T01:20:45.296Z,10.61
2022-10-22T01:23:37.667Z,10.30
2022-10-22T01:26:18.149Z,10.49
2022-10-22T01:29:14.486Z,10.53
2022-10-22T01:32:05.190Z,10.59
2022-10-22T01:34:33.614Z,10.45
2022-10-22T01:37:03.038Z,10.45
2022-10-22T01:39:31.605Z,10.08
2022-10-22T01:41:59.504Z,9.98
2022-10-22T01:44:37.599Z,9.95
2022-10-22T01:47:10.242Z,10.25
2022-10-22T01:49:40.322Z,10.22
2022-10-22T01:52:10.098Z,10.06
2022-10-22T01:55:25.032Z,9.59
2022-10-22T01:58:29.312Z,9.79
2022-10-22T02:01:03.501Z,10.01
2022-10-22T02:03:52.764Z,9.91
2022-10-22T02:06:23.665Z,10.06
2022-10-22T02:08:53.668Z,10.24
2022-10-22T02:11:20.839Z,10.19
2022-10-22T02:13:52.979Z,10.27
2022-10-22T02:16:27.744Z,10.33
2022-10-22T02:18:57.055Z,10.33
2022-10-22T02:21:24.479Z,10.41
2022-10-22T02:23:51.777Z,10.47
2022-10-22T02:26:45.227Z,10.46
2022-10-22T02:29:21.938Z,10.35
2022-10-22T02:31:51.738Z,10.24
2022-10-22T02:34:24.149Z,10.19
2022-10-22T02:36:52.225Z,10.10
2022-10-22T02:39:21.921Z,10.25
2022-10-22T02:41:49.120Z,10.33
2022-10-22T02:44:16.093Z,10.40
2022-10-22T02:46:43.761Z,10.45
2022-10-22T02:49:10.601Z,10.40
2022-10-22T02:51:37.469Z,10.34
2022-10-22T02:54:04.543Z,10.31
2022-10-22T02:56:31.573Z,10.22
2022-10-22T02:58:58.482Z,10.19
2022-10-22T03:01:25.651Z,10.37
2022-10-22T03:03:52.519Z,10.44
2022-10-22T03:06:19.553Z,10.29
2022-10-22T03:08:46.597Z,10.03
2022-10-22T03:11:13.526Z,10.13
2022-10-22T03:13:40.498Z,9.86
2022-10-22T03:16:07.688Z,10.29
2022-10-22T03:18:34.881Z,10.39
2022-10-22T03:21:08.174Z,10.20
2022-10-22T03:23:36.309Z,10.38
2022-10-22T03:26:04.416Z,10.14
2022-10-22T03:28:31.255Z,9.47
2022-10-22T03:30:58.123Z,9.51
2022-10-22T03:33:25.151Z,9.82
2022-10-22T03:35:52.149Z,9.58
2022-10-22T03:38:19.152Z,9.31
2022-10-22T03:40:47.155Z,9.49
2022-10-22T03:43:14.713Z,9.62
2022-10-22T03:45:41.551Z,9.97
2022-10-22T03:48:08.577Z,10.12
2022-10-22T03:50:35.546Z,10.25
2022-10-22T03:53:02.527Z,10.25
2022-10-22T03:55:29.465Z,10.23
2022-10-22T03:57:56.406Z,10.02
2022-10-22T04:00:23.304Z,9.98
2022-10-22T04:02:50.250Z,10.14
2022-10-22T04:05:17.288Z,10.35
2022-10-22T04:07:44.412Z,10.29
2022-10-22T04:10:11.377Z,10.05
2022-10-22T04:12:38.370Z,10.24
2022-10-22T04:15:05.845Z,10.20
2022-10-22T04:17:36.992Z,10.04
2022-10-22T04:20:05.301Z,10.19
2022-10-22T04:22:35.411Z,10.36
2022-10-22T04:25:03.533Z,10.42
2022-10-22T04:27:31.688Z,10.51
2022-10-22T04:29:58.911Z,10.56
2022-10-22T04:32:27.050Z,10.38
2022-10-22T04:34:54.447Z,10.32
2022-10-22T04:37:21.460Z,10.60
2022-10-22T04:39:48.337Z,11.13
2022-10-22T04:42:15.391Z,11.89
2022-10-22T04:44:42.273Z,12.91
2022-10-22T04:47:09.374Z,13.41
2022-10-22T04:49:36.277Z,13.46
2022-10-22T04:52:03.365Z,13.35
2022-10-22T04:54:32.986Z,13.95
2022-10-22T04:57:00.556Z,13.81
2022-10-22T04:59:27.559Z,13.41
2022-10-22T05:01:54.415Z,13.72
2022-10-22T05:04:21.516Z,15.81
2022-10-22T05:06:48.425Z,17.47
2022-10-22T05:09:19.603Z,19.05
2022-10-22T05:11:49.572Z,20.18
2022-10-22T05:14:18.771Z,20.61
2022-10-22T05:16:48.577Z,20.46
2022-10-22T05:19:24.150Z,20.56
2022-10-22T05:21:52.422Z,20.27
2022-10-22T05:24:19.455Z,20.70
2022-10-22T05:26:46.430Z,20.89
2022-10-22T05:29:13.876Z,21.35
2022-10-22T05:31:41.405Z,21.22
2022-10-22T05:34:08.497Z,23.19
2022-10-22T05:36:35.599Z,24.37
2022-10-22T05:39:02.736Z,25.52
2022-10-22T05:41:30.444Z,25.50
2022-10-22T05:43:59.208Z,26.82
2022-10-22T05:46:31.093Z,25.59
2022-10-22T05:49:00.875Z,25.97
2022-10-22T05:51:29.892Z,25.32
2022-10-22T05:53:59.088Z,25.16
2022-10-22T05:56:27.725Z,24.10
2022-10-22T05:58:54.806Z,22.33
2022-10-22T06:01:40.570Z,18.94
2022-10-22T06:04:11.037Z,17.63
2022-10-22T06:06:45.127Z,17.38
2022-10-22T06:12:12.794Z,20.13
2022-10-22T06:14:39.661Z,20.11
2022-10-22T06:17:06.554Z,19.64
2022-10-22T06:19:33.511Z,19.75
2022-10-22T06:22:00.419Z,20.21
2022-10-22T06:24:27.286Z,21.48
2022-10-22T06:26:54.166Z,23.11
2022-10-22T06:29:21.422Z,23.04
2022-10-22T06:31:48.793Z,22.89
2022-10-22T06:34:15.883Z,24.17
2022-10-22T06:36:44.308Z,24.52
2022-10-22T06:39:15.823Z,24.20
2022-10-22T06:41:42.841Z,25.63
2022-10-22T06:44:15.301Z,24.23
2022-10-22T06:46:43.644Z,24.94
2022-10-22T06:49:14.446Z,25.44
2022-10-22T06:51:41.842Z,25.85
2022-10-22T06:54:08.838Z,26.66
2022-10-22T06:56:35.768Z,25.27
2022-10-22T06:59:02.933Z,24.31
2022-10-22T07:01:32.401Z,23.44
2022-10-22T07:03:59.441Z,25.00
2022-10-22T07:06:27.892Z,23.43
2022-10-22T07:08:56.820Z,22.04
2022-10-22T07:11:27.745Z,21.88
2022-10-22T07:13:56.710Z,21.99
2022-10-22T07:16:28.028Z,22.48
2022-10-22T07:18:59.442Z,21.45
2022-10-22T07:21:26.320Z,19.53
2022-10-22T07:23:53.381Z,20.24
2022-10-22T07:26:20.570Z,21.33
2022-10-22T07:28:48.484Z,21.77
2022-10-22T07:31:16.452Z,23.52
2022-10-22T07:33:43.430Z,23.58
2022-10-22T07:36:17.754Z,22.52
2022-10-22T07:38:46.503Z,21.99
2022-10-22T07:41:15.466Z,22.32
2022-10-22T07:43:42.456Z,22.88
2022-10-22T07:46:09.493Z,23.67
2022-10-22T07:48:37.017Z,21.81
2022-10-22T07:51:04.625Z,22.90
2022-10-22T07:53:31.872Z,23.87
2022-10-22T07:55:59.188Z,24.06
2022-10-22T07:58:26.165Z,24.12
2022-10-22T08:00:56.798Z,23.87
2022-10-22T08:03:23.839Z,24.67
2022-10-22T08:05:51.966Z,23.13
2022-10-22T08:08:18.958Z,23.71
2022-10-22T08:10:47.742Z,22.58
2022-10-22T08:13:15.432Z,23.68
2022-10-22T08:18:15.475Z,24.17
2022-10-22T08:20:42.691Z,22.66
2022-10-22T08:23:09.677Z,22.75
2022-10-22T08:25:36.820Z,21.98
2022-10-22T08:28:03.901Z,22.44
2022-10-22T08:30:30.947Z,24.54
2022-10-22T08:32:57.854Z,24.97
2022-10-22T08:35:24.782Z,24.89
2022-10-22T08:37:51.639Z,24.81
2022-10-22T08:40:30.517Z,21.87
2022-10-22T08:43:13.518Z,23.23
2022-10-22T08:46:21.742Z,23.97
2022-10-22T08:48:50.054Z,24.34
2022-10-22T08:51:23.992Z,24.16
2022-10-22T08:54:13.973Z,23.05
2022-10-22T08:56:45.377Z,24.35
2022-10-22T08:59:23.276Z,23.42
2022-10-22T09:01:53.195Z,22.72
2022-10-22T09:04:41.741Z,23.42
2022-10-22T09:07:10.478Z,24.65
2022-10-22T09:09:47.928Z,23.78
2022-10-22T09:12:20.212Z,23.67
2022-10-22T09:14:47.571Z,23.33
2022-10-22T09:17:34.068Z,22.20
2022-10-22T09:20:26.974Z,22.28
2022-10-22T09:23:31.111Z,23.63
2022-10-22T09:25:59.866Z,24.20
2022-10-22T09:28:26.808Z,22.64
2022-10-22T09:30:53.919Z,22.05
2022-10-22T09:33:30.906Z,21.53
2022-10-22T09:36:03.775Z,20.79
2022-10-22T09:38:34.301Z,20.24
2022-10-22T09:41:03.998Z,20.09
2022-10-22T09:43:32.448Z,19.90
2022-10-22T09:46:05.381Z,20.33
2022-10-22T09:48:37.454Z,20.08
2022-10-22T09:51:18.262Z,20.15
2022-10-22T09:54:01.030Z,20.75
2022-10-22T09:56:36.940Z,20.84
2022-10-22T09:59:04.328Z,20.35
2022-10-22T10:01:38.681Z,20.12
2022-10-22T10:04:11.048Z,19.89
2022-10-22T10:06:40.659Z,20.11
2022-10-22T10:09:20.788Z,20.91
2022-10-22T10:12:01.058Z,21.43
2022-10-22T10:14:40.308Z,21.27
2022-10-22T10:17:33.614Z,22.01
2022-10-22T10:20:16.113Z,23.39
2022-10-22T10:23:10.500Z,24.96
2022-10-22T10:25:46.831Z,23.36
2022-10-22T10:28:13.964Z,22.40
2022-10-22T10:30:53.824Z,21.26
2022-10-22T10:33:48.406Z,20.68
2022-10-22T10:36:25.624Z,20.27
2022-10-22T10:39:11.415Z,20.21
2022-10-22T10:41:47.245Z,20.21
2022-10-22T10:44:17.168Z,20.61
2022-10-22T10:47:21.708Z,20.76
2022-10-22T10:49:54.331Z,20.40
2022-10-22T10:52:52.486Z,20.52
2022-10-22T10:55:30.521Z,20.38
2022-10-22T10:58:11.119Z,20.47
2022-10-22T11:00:57.618Z,21.16
2022-10-22T11:03:55.610Z,21.38
2022-10-22T11:06:25.557Z,21.56
2022-10-22T11:09:02.476Z,22.22
2022-10-22T11:11:39.627Z,22.44
2022-10-22T11:14:38.461Z,21.97
2022-10-22T11:17:14.294Z,21.65
2022-10-22T11:20:05.270Z,22.18
2022-10-22T11:22:38.342Z,22.06
2022-10-22T11:25:30.317Z,22.29
2022-10-22T11:28:11.659Z,23.02
2022-10-22T11:30:43.010Z,23.55
2022-10-22T11:33:18.445Z,23.78
2022-10-22T11:35:47.429Z,22.84
2022-10-22T11:38:26.194Z,21.83
2022-10-22T11:41:17.111Z,22.24
2022-10-22T11:44:05.736Z,22.22
2022-10-22T11:46:43.442Z,23.15
2022-10-22T11:49:13.178Z,23.13
2022-10-22T11:51:42.843Z,23.16
2022-10-22T11:54:33.946Z,22.29
2022-10-22T11:57:19.951Z,21.84
2022-10-22T11:59:46.856Z,22.10
2022-10-22T12:02:22.857Z,22.19
2022-10-22T12:04:49.808Z,21.92
2022-10-22T12:07:51.444Z,21.69
2022-10-22T12:10:34.134Z,22.37
2022-10-22T12:13:21.740Z,22.38
2022-10-22T12:15:53.172Z,21.93
2022-10-22T12:18:26.166Z,21.82
2022-10-22T12:20:54.056Z,21.99
2022-10-22T12:23:26.880Z,22.40
2022-10-22T12:25:53.717Z,22.33
2022-10-22T12:28:20.678Z,22.05
2022-10-22T12:30:47.644Z,21.22
2022-10-22T12:33:23.935Z,20.91
2022-10-22T12:35:54.167Z,20.96
2022-10-22T12:38:23.674Z,20.89
2022-10-22T12:40:52.121Z,21.16
2022-10-22T12:43:24.903Z,21.26
2022-10-22T12:45:52.956Z,21.25
2022-10-22T12:48:22.625Z,20.85
2022-10-22T12:50:55.432Z,21.07
2022-10-22T12:53:39.807Z,21.26
2022-10-22T12:56:28.889Z,21.17
2022-10-22T12:59:00.447Z,21.09
2022-10-22T13:01:30.159Z,20.58
2022-10-22T13:04:15.718Z,20.86
2022-10-22T13:06:48.220Z,21.02
2022-10-22T13:09:25.283Z,20.71
2022-10-22T13:12:04.898Z,20.82
2022-10-22T13:14:34.396Z,21.06
2022-10-22T13:17:10.539Z,20.98
2022-10-22T13:19:54.201Z,21.13
2022-10-22T13:22:36.200Z,19.62
2022-10-22T13:25:16.020Z,19.08
2022-10-22T13:27:51.542Z,18.92
2022-10-22T13:30:28.250Z,18.68
2022-10-22T13:33:04.945Z,18.60
2022-10-22T13:35:37.703Z,18.82
2022-10-22T13:38:15.693Z,18.69
2022-10-22T13:40:42.675Z,18.53
2022-10-22T13:43:09.646Z,18.52
2022-10-22T13:45:36.543Z,18.73
2022-10-22T13:48:03.907Z,19.34
2022-10-22T13:50:30.877Z,18.74
2022-10-22T13:52:58.799Z,18.43
2022-10-22T13:55:29.172Z,18.38
2022-10-22T13:58:10.300Z,18.91
2022-10-22T14:00:39.977Z,18.91
2022-10-22T14:03:11.961Z,18.26
2022-10-22T14:05:38.890Z,18.07
2022-10-22T14:08:12.929Z,17.94
2022-10-22T14:10:39.894Z,17.80
2022-10-22T14:13:08.109Z,18.19
2022-10-22T14:15:35.132Z,17.87
2022-10-22T14:18:03.495Z,18.13
2022-10-22T14:20:33.083Z,17.82
2022-10-22T14:23:18.959Z,18.39
2022-10-22T14:25:45.998Z,18.60
2022-10-22T14:28:13.722Z,18.72
2022-10-22T14:30:41.255Z,18.83
2022-10-22T14:33:30.525Z,19.01
2022-10-22T14:36:01.964Z,19.22
2022-10-22T14:38:29.583Z,19.42
2022-10-22T14:40:59.528Z,19.32
2022-10-22T14:43:29.139Z,19.18
2022-10-22T14:45:56.549Z,18.94
2022-10-22T14:48:24.112Z,19.25
2022-10-22T14:50:51.332Z,19.30
2022-10-22T14:53:18.596Z,19.00
2022-10-22T14:55:47.288Z,19.32
2022-10-22T14:58:14.684Z,19.34
2022-10-22T15:00:43.432Z,18.90
2022-10-22T15:03:11.618Z,18.84
2022-10-22T15:05:44.537Z,18.91
2022-10-22T15:08:13.203Z,19.05
2022-10-22T15:10:40.934Z,18.89
2022-10-22T15:13:07.943Z,18.93
2022-10-22T15:15:39.534Z,18.84
2022-10-22T15:18:07.217Z,18.74
2022-10-22T15:20:34.080Z,18.33
2022-10-22T15:23:01.026Z,18.15
2022-10-22T15:25:28.857Z,18.45
2022-10-22T15:27:59.671Z,18.39
2022-10-22T15:30:34.521Z,18.54
2022-10-22T15:33:02.481Z,18.15
2022-10-22T15:35:29.442Z,17.91
2022-10-22T15:37:56.652Z,17.72
2022-10-22T15:40:23.601Z,17.34
2022-10-22T15:42:50.482Z,17.24
2022-10-22T15:45:17.431Z,17.21
2022-10-22T15:47:48.693Z,16.93
2022-10-22T15:50:16.214Z,16.68
2022-10-22T15:52:43.233Z,16.67
2022-10-22T15:55:14.679Z,16.54
2022-10-22T15:57:41.839Z,16.49
2022-10-22T16:00:09.734Z,16.54
2022-10-22T16:02:39.565Z,16.28
2022-10-22T16:05:06.976Z,16.36
2022-10-22T16:07:33.999Z,16.57
2022-10-22T16:10:01.756Z,16.58
2022-10-22T16:12:28.757Z,16.82
2022-10-22T16:14:55.851Z,16.85
2022-10-22T16:17:23.345Z,16.70
2022-10-22T16:19:50.215Z,16.25
2022-10-22T16:22:17.161Z,16.28
2022-10-22T16:24:44.154Z,16.33
2022-10-22T16:27:11.116Z,16.40
2022-10-22T16:29:39.349Z,16.64
2022-10-22T16:32:06.887Z,16.60
2022-10-22T16:34:33.805Z,16.65
2022-10-22T16:37:00.778Z,17.15
2022-10-22T16:39:27.760Z,17.59
2022-10-22T16:41:54.678Z,17.64
2022-10-22T16:44:21.577Z,17.66
2022-10-22T16:46:48.503Z,17.93
2022-10-22T16:49:15.370Z,17.63
2022-10-22T16:51:42.220Z,17.37
2022-10-22T16:54:12.616Z,17.76
2022-10-22T16:56:39.713Z,17.80
2022-10-22T16:59:06.974Z,17.87
2022-10-22T17:01:37.873Z,17.84
2022-10-22T17:04:07.410Z,17.87
2022-10-22T17:06:34.381Z,17.65
2022-10-22T17:09:01.373Z,17.54
2022-10-22T17:11:34.674Z,17.66
2022-10-22T17:14:02.225Z,17.61
2022-10-22T17:16:29.449Z,17.28
2022-10-22T17:18:57.829Z,17.56
2022-10-22T17:21:24.909Z,17.77
2022-10-22T17:23:58.197Z,17.74
2022-10-22T17:26:26.985Z,17.70
2022-10-22T17:28:54.770Z,17.53
2022-10-22T17:31:24.853Z,17.88
2022-10-22T17:33:53.464Z,18.03
2022-10-22T17:36:21.592Z,18.17
2022-10-22T17:38:51.574Z,17.80
2022-10-22T17:41:25.315Z,17.78
2022-10-22T17:43:52.795Z,17.70
2022-10-22T17:46:27.822Z,17.18
2022-10-22T17:48:57.755Z,17.20
2022-10-22T17:51:26.286Z,17.26
2022-10-22T17:53:53.488Z,17.42
2022-10-22T17:56:28.677Z,17.41
2022-10-22T17:58:55.965Z,17.23
2022-10-22T18:01:27.288Z,16.99
2022-10-22T18:03:56.015Z,17.34
2022-10-22T18:06:23.638Z,17.32
2022-10-22T18:08:50.778Z,17.30
2022-10-22T18:11:21.330Z,17.26
2022-10-22T18:13:52.836Z,17.34
2022-10-22T18:16:19.966Z,17.52
2022-10-22T18:18:53.247Z,17.69
2022-10-22T18:21:21.313Z,17.53
2022-10-22T18:23:48.234Z,17.61
2022-10-22T18:26:16.162Z,17.43
2022-10-22T18:28:43.369Z,17.45
2022-10-22T18:31:16.196Z,17.59
2022-10-22T18:33:43.073Z,17.74
2022-10-22T18:36:12.469Z,17.54
2022-10-22T18:38:39.527Z,17.82
2022-10-22T18:41:07.824Z,17.98
2022-10-22T18:43:37.024Z,18.23
2022-10-22T18:46:07.667Z,18.24
2022-10-22T18:48:36.192Z,17.85
2022-10-22T18:51:08.887Z,17.67
2022-10-22T18:53:37.485Z,17.87
2022-10-22T18:56:06.027Z,17.86
2022-10-22T18:58:38.056Z,18.10
2022-10-22T19:01:09.927Z,18.16
2022-10-22T19:03:37.390Z,17.88
2022-10-22T19:06:04.789Z,18.08
2022-10-22T19:08:32.260Z,17.98
2022-10-22T19:10:59.202Z,18.22
2022-10-22T19:13:26.075Z,18.44
2022-10-22T19:15:53.307Z,18.48
2022-10-22T19:18:20.630Z,18.47
2022-10-22T19:20:49.615Z,18.62
2022-10-22T19:23:19.974Z,18.61
2022-10-22T19:25:47.886Z,18.17
2022-10-22T19:28:14.775Z,17.98
2022-10-22T19:30:44.810Z,18.16
2022-10-22T19:33:11.687Z,18.35
2022-10-22T19:35:38.581Z,18.16
2022-10-22T19:38:05.527Z,18.36
2022-10-22T19:40:32.392Z,18.05
2022-10-22T19:42:59.334Z,18.04
2022-10-22T19:45:26.203Z,17.86
2022-10-22T19:47:53.042Z,18.14
2022-10-22T19:50:20.522Z,18.35
2022-10-22T19:52:47.442Z,18.28
2022-10-22T19:55:14.359Z,18.30
2022-10-22T19:57:41.424Z,18.04
2022-10-22T20:00:09.198Z,18.00
2022-10-22T20:02:37.516Z,18.15
2022-10-22T20:05:06.618Z,17.52
2022-10-22T20:07:35.308Z,17.65
2022-10-22T20:10:02.358Z,17.88
2022-10-22T20:12:29.239Z,17.93
2022-10-22T20:14:56.155Z,17.92
2022-10-22T20:17:23.009Z,17.88
2022-10-22T20:19:49.879Z,17.65
2022-10-22T20:22:18.725Z,17.68
2022-10-22T20:24:45.833Z,17.48
2022-10-22T20:27:13.534Z,17.41
2022-10-22T20:29:40.389Z,18.03
2022-10-22T20:32:08.843Z,18.18
2022-10-22T20:34:35.992Z,17.89
2022-10-22T20:37:02.848Z,17.82
2022-10-22T20:39:29.788Z,17.37
2022-10-22T20:41:56.621Z,17.13
2022-10-22T20:44:23.465Z,16.97
2022-10-22T20:46:51.675Z,17.37
2022-10-22T20:49:20.906Z,17.37
2022-10-22T20:51:47.901Z,17.43
2022-10-22T20:54:15.681Z,17.20
2022-10-22T20:56:43.637Z,17.41
2022-10-22T20:59:12.195Z,17.33
2022-10-22T21:01:46.505Z,17.16
2022-10-22T21:04:13.811Z,16.91
2022-10-22T21:06:42.983Z,17.18
2022-10-22T21:09:11.938Z,17.15
2022-10-22T21:11:40.137Z,17.21
2022-10-22T21:14:09.335Z,16.97
2022-10-22T21:16:40.025Z,16.58
2022-10-22T21:19:06.865Z,16.56
2022-10-22T21:21:34.049Z,16.40
2022-10-22T21:24:00.910Z,16.17
2022-10-22T21:26:27.828Z,16.00
2022-10-22T21:28:54.702Z,16.18
2022-10-22T21:31:26.291Z,16.06
2022-10-22T21:33:53.841Z,16.10
2022-10-22T21:36:23.358Z,16.44
2022-10-22T21:38:53.507Z,16.12
2022-10-22T21:41:23.867Z,16.06
2022-10-22T21:43:51.409Z,16.15
2022-10-22T21:46:23.672Z,16.03
2022-10-22T21:48:58.597Z,15.59
2022-10-22T21:51:26.221Z,15.42
2022-10-22T21:53:54.809Z,15.09
2022-10-22T21:56:27.519Z,15.38
2022-10-22T21:58:54.670Z,15.00
2022-10-22T22:01:22.794Z,14.74
2022-10-22T22:03:50.544Z,14.75
2022-10-22T22:06:21.467Z,14.82
2022-10-22T22:08:50.422Z,15.19
2022-10-22T22:11:23.827Z,14.64
2022-10-22T22:13:52.243Z,14.93
2022-10-22T22:16:27.035Z,14.81
2022-10-22T22:18:56.745Z,14.84
2022-10-22T22:21:24.101Z,14.98
2022-10-22T22:23:51.166Z,14.86
2022-10-22T22:26:25.280Z,14.80
2022-10-22T22:28:56.576Z,14.54
2022-10-22T22:31:26.829Z,14.73
2022-10-22T22:34:08.233Z,14.48
2022-10-22T22:36:40.998Z,14.27
2022-10-22T22:39:10.875Z,14.19
2022-10-22T22:41:37.774Z,14.22
2022-10-22T22:44:05.092Z,14.40
2022-10-22T22:46:32.684Z,14.54
2022-10-22T22:48:59.861Z,14.60
2022-10-22T22:51:26.846Z,14.74
2022-10-22T22:53:53.993Z,14.66
2022-10-22T22:56:26.402Z,14.88
2022-10-22T22:58:53.529Z,14.96
2022-10-22T23:01:26.798Z,14.91
2022-10-22T23:03:58.126Z,14.92
2022-10-22T23:06:29.881Z,14.66
2022-10-22T23:08:58.384Z,14.57
2022-10-22T23:11:26.879Z,14.79
2022-10-22T23:14:01.992Z,14.90
2022-10-22T23:16:31.764Z,14.78
2022-10-22T23:18:59.853Z,15.03
2022-10-22T23:21:32.480Z,15.16
2022-10-22T23:24:02.250Z,15.18
2022-10-22T23:26:35.495Z,15.25
2022-10-22T23:29:12.034Z,15.54
2022-10-22T23:31:39.288Z,15.53
2022-10-22T23:34:07.270Z,15.52
2022-10-22T23:36:35.393Z,15.57
2022-10-22T23:39:05.106Z,15.72
2022-10-22T23:41:32.237Z,15.92
2022-10-22T23:43:59.901Z,15.99
2022-10-22T23:46:26.923Z,16.16
2022-10-22T23:48:53.954Z,16.32
2022-10-22T23:51:21.488Z,16.21
2022-10-22T23:53:55.209Z,16.22
2022-10-22T23:56:22.253Z,16.41
2022-10-22T23:58:53.971Z,16.26
